Time;durP1;ratioP1;P1;durP2;ratioP2;P2;SDS_P1;SDS_P2;PMS_P1;PMS_P2;Temp;Humidity;BMP_temperature;BMP_pressure;BME280_temperature;BME280_humidity;BME280_pressure;Samples;Min_cycle;Max_cycle;Signal;HPM_P1;HPM_P2
2022/08/30 00:03:26;;;;;;;10.40;3.92;;;;;;;;;;5056934;28;20563;-70
2022/08/30 00:05:52;;;;;;;8.43;3.50;;;;;;;;;;5056344;28;20028;-70
2022/08/30 00:08:18;;;;;;;13.13;3.63;;;;;;;;;;5056534;28;20029;-68
2022/08/30 00:10:45;;;;;;;11.90;3.67;;;;;;;;;;5056507;28;20043;-69
2022/08/30 00:13:12;;;;;;;11.20;3.38;;;;;;;;;;5056201;28;20397;-69
2022/08/30 00:15:39;;;;;;;7.82;3.65;;;;;;;;;;5056039;28;20025;-69
2022/08/30 00:18:05;;;;;;;12.23;3.55;;;;;;;;;;5056096;28;20029;-69
2022/08/30 00:20:32;;;;;;;12.10;4.00;;;;;;;;;;5056290;28;20032;-70
2022/08/30 00:22:58;;;;;;;10.20;3.85;;;;;;;;;;5056573;28;20025;-69
2022/08/30 00:25:24;;;;;;;10.55;4.10;;;;;;;;;;5054847;28;20155;-69
2022/08/30 00:27:50;;;;;;;9.45;3.10;;;;;;;;;;5056169;28;20056;-70
2022/08/30 00:30:17;;;;;;;8.50;3.10;;;;;;;;;;5055889;28;20556;-69
2022/08/30 00:32:44;;;;;;;11.65;3.45;;;;;;;;;;5055781;28;20024;-69
2022/08/30 00:35:11;;;;;;;12.57;4.38;;;;;;;;;;5056261;28;20526;-68
2022/08/30 00:37:38;;;;;;;10.75;3.70;;;;;;;;;;5055685;28;20105;-69
2022/08/30 00:40:04;;;;;;;11.95;3.55;;;;;;;;;;5055698;28;20481;-69
2022/08/30 00:42:31;;;;;;;9.38;3.63;;;;;;;;;;5055915;28;20501;-68
2022/08/30 00:44:58;;;;;;;9.40;3.63;;;;;;;;;;5055879;28;20021;-69
2022/08/30 00:47:24;;;;;;;12.40;3.58;;;;;;;;;;5055515;28;20060;-69
2022/08/30 00:49:51;;;;;;;12.13;4.05;;;;;;;;;;5055470;28;20021;-69
2022/08/30 00:52:18;;;;;;;13.38;4.47;;;;;;;;;;5055430;28;20040;-69
2022/08/30 00:54:45;;;;;;;11.57;3.92;;;;;;;;;;5055399;28;20397;-69
2022/08/30 00:57:12;;;;;;;7.78;3.33;;;;;;;;;;5055087;28;20053;-69
2022/08/30 00:59:38;;;;;;;10.80;3.65;;;;;;;;;;5055548;28;20017;-69
2022/08/30 01:02:05;;;;;;;12.45;3.95;;;;;;;;;;5055194;28;20480;-69
2022/08/30 01:04:32;;;;;;;11.88;3.65;;;;;;;;;;5037312;28;20028;-69
2022/08/30 01:06:59;;;;;;;11.13;3.90;;;;;;;;;;5055196;28;20032;-69
2022/08/30 01:09:25;;;;;;;11.02;4.40;;;;;;;;;;5055127;28;20053;-69
2022/08/30 01:11:51;;;;;;;9.20;3.70;;;;;;;;;;5055089;28;20024;-69
2022/08/30 01:14:17;;;;;;;8.23;3.65;;;;;;;;;;5055308;28;20469;-69
2022/08/30 01:16:45;;;;;;;11.43;3.60;;;;;;;;;;5054921;28;20040;-68
2022/08/30 01:19:34;;;;;;;8.15;3.83;;;;;;;;;;5055548;28;20105;-70
2022/08/30 01:22:04;;;;;;;8.15;3.85;;;;;;;;;;5049440;28;20119;-69
2022/08/30 01:24:31;;;;;;;10.20;3.97;;;;;;;;;;5055190;28;20354;-68
2022/08/30 01:26:57;;;;;;;13.90;3.70;;;;;;;;;;5054819;28;20033;-69
2022/08/30 01:29:24;;;;;;;9.48;3.83;;;;;;;;;;5036917;28;20021;-69
2022/08/30 01:31:50;;;;;;;12.73;4.10;;;;;;;;;;5054714;28;20441;-70
2022/08/30 01:34:18;;;;;;;14.75;4.38;;;;;;;;;;5055206;28;20112;-68
2022/08/30 01:36:45;;;;;;;7.90;3.58;;;;;;;;;;5054402;28;20025;-68
2022/08/30 01:39:13;;;;;;;12.45;3.80;;;;;;;;;;5055145;28;20036;-69
2022/08/30 01:41:39;;;;;;;11.90;3.95;;;;;;;;;;5036668;28;20031;-69
2022/08/30 01:44:06;;;;;;;14.00;4.38;;;;;;;;;;5054752;28;20075;-69
2022/08/30 01:46:38;;;;;;;10.98;4.30;;;;;;;;;;5054675;28;20087;-70
2022/08/30 01:49:07;;;;;;;11.07;4.30;;;;;;;;;;5054331;28;20033;-69
2022/08/30 01:51:33;;;;;;;10.60;4.90;;;;;;;;;;5054621;28;20060;-69
2022/08/30 01:53:59;;;;;;;15.38;4.60;;;;;;;;;;5054301;28;20032;-68
2022/08/30 01:56:27;;;;;;;11.90;4.47;;;;;;;;;;5053980;28;20155;-68
2022/08/30 01:58:53;;;;;;;10.93;3.95;;;;;;;;;;5054465;28;20431;-70
2022/08/30 02:01:20;;;;;;;13.75;4.28;;;;;;;;;;5054108;28;20025;-69
2022/08/30 02:03:47;;;;;;;11.82;3.70;;;;;;;;;;5054129;28;20032;-68
2022/08/30 02:06:15;;;;;;;12.70;4.75;;;;;;;;;;5054610;28;20025;-69
2022/08/30 02:08:41;;;;;;;9.55;3.38;;;;;;;;;;5054282;28;20025;-67
2022/08/30 02:11:08;;;;;;;11.40;3.70;;;;;;;;;;5053927;28;20017;-68
2022/08/30 02:13:36;;;;;;;9.73;4.05;;;;;;;;;;5054226;28;20036;-68
2022/08/30 02:16:02;;;;;;;12.88;3.90;;;;;;;;;;5035935;28;20021;-69
2022/08/30 02:18:29;;;;;;;9.23;3.88;;;;;;;;;;5053861;28;20060;-68
2022/08/30 02:20:55;;;;;;;10.63;4.35;;;;;;;;;;5035895;28;20025;-68
2022/08/30 02:23:21;;;;;;;11.88;4.30;;;;;;;;;;5053742;28;20025;-68
2022/08/30 02:25:47;;;;;;;10.77;4.20;;;;;;;;;;5053692;28;20025;-69
2022/08/30 02:28:14;;;;;;;11.77;4.03;;;;;;;;;;5053672;28;20025;-69
2022/08/30 02:30:40;;;;;;;12.40;4.65;;;;;;;;;;5053611;28;20027;-69
2022/08/30 02:33:06;;;;;;;10.88;4.47;;;;;;;;;;5053552;28;20082;-68
2022/08/30 02:35:32;;;;;;;10.20;4.53;;;;;;;;;;5053962;28;20025;-69
2022/08/30 02:37:58;;;;;;;16.50;4.63;;;;;;;;;;5053773;28;20377;-69
2022/08/30 02:40:24;;;;;;;13.35;4.47;;;;;;;;;;5053503;28;20057;-68
2022/08/30 02:42:51;;;;;;;10.70;4.50;;;;;;;;;;5053471;28;20032;-68
2022/08/30 02:45:17;;;;;;;13.15;4.20;;;;;;;;;;5053411;28;20100;-69
2022/08/30 02:47:43;;;;;;;13.88;4.50;;;;;;;;;;5052841;28;20021;-69
2022/08/30 02:50:09;;;;;;;12.98;4.40;;;;;;;;;;5053609;28;20111;-69
2022/08/30 02:52:36;;;;;;;14.23;3.65;;;;;;;;;;5053292;28;20025;-68
2022/08/30 02:55:02;;;;;;;11.98;4.38;;;;;;;;;;5053273;28;20075;-69
2022/08/30 02:57:28;;;;;;;15.07;4.43;;;;;;;;;;5052740;28;20051;-69
2022/08/30 02:59:55;;;;;;;13.80;4.65;;;;;;;;;;5035379;28;20115;-69
2022/08/30 03:02:21;;;;;;;13.75;4.43;;;;;;;;;;5053127;28;20024;-69
2022/08/30 03:04:47;;;;;;;8.98;4.43;;;;;;;;;;5053463;28;20029;-70
2022/08/30 03:07:14;;;;;;;10.23;4.05;;;;;;;;;;5053210;28;20025;-70
2022/08/30 03:09:40;;;;;;;11.40;3.97;;;;;;;;;;5053142;28;20029;-69
2022/08/30 03:12:06;;;;;;;13.00;4.82;;;;;;;;;;5053655;28;20111;-69
2022/08/30 03:14:34;;;;;;;11.02;4.35;;;;;;;;;;5053066;28;20428;-69
2022/08/30 03:17:00;;;;;;;9.52;4.10;;;;;;;;;;5035159;28;20130;-69
2022/08/30 03:19:26;;;;;;;13.70;4.32;;;;;;;;;;5053315;28;20032;-68
2022/08/30 03:21:53;;;;;;;12.80;4.18;;;;;;;;;;5053335;28;20017;-69
2022/08/30 03:24:19;;;;;;;9.38;3.83;;;;;;;;;;5053024;28;20017;-68
2022/08/30 03:26:45;;;;;;;10.52;4.07;;;;;;;;;;5052962;28;20039;-68
2022/08/30 03:29:11;;;;;;;12.32;4.25;;;;;;;;;;5053490;28;20043;-70
2022/08/30 03:31:37;;;;;;;10.95;4.53;;;;;;;;;;5052878;28;20051;-68
2022/08/30 03:34:04;;;;;;;8.55;3.90;;;;;;;;;;5052872;28;20051;-68
2022/08/30 03:36:30;;;;;;;10.70;3.75;;;;;;;;;;5053311;28;20060;-69
2022/08/30 03:38:56;;;;;;;9.27;3.78;;;;;;;;;;5053078;28;20033;-68
2022/08/30 03:41:23;;;;;;;14.55;4.20;;;;;;;;;;5052823;28;20021;-70
2022/08/30 03:43:49;;;;;;;9.80;4.43;;;;;;;;;;5052795;28;20017;-69
2022/08/30 03:46:15;;;;;;;8.73;3.75;;;;;;;;;;5052758;28;20104;-69
2022/08/30 03:48:42;;;;;;;11.15;4.47;;;;;;;;;;5052724;28;20087;-69
2022/08/30 03:51:08;;;;;;;10.38;3.70;;;;;;;;;;5034877;28;20401;-69
2022/08/30 03:53:34;;;;;;;17.40;4.22;;;;;;;;;;5052628;28;20029;-69
2022/08/30 03:56:00;;;;;;;14.73;4.20;;;;;;;;;;5052400;28;20052;-69
2022/08/30 03:58:27;;;;;;;11.82;4.00;;;;;;;;;;5053488;28;20458;-69
2022/08/30 04:00:53;;;;;;;10.40;4.45;;;;;;;;;;5056442;28;20013;-68
2022/08/30 04:03:24;;;;;;;13.73;4.63;;;;;;;;;;5056467;28;20095;-68
2022/08/30 04:05:50;;;;;;;9.60;4.10;;;;;;;;;;5056753;28;20381;-68
2022/08/30 04:08:16;;;;;;;8.07;3.78;;;;;;;;;;5056615;28;20032;-68
2022/08/30 04:10:43;;;;;;;10.85;4.50;;;;;;;;;;5056515;28;20025;-69
2022/08/30 04:13:09;;;;;;;11.55;4.75;;;;;;;;;;5056226;28;20047;-69
2022/08/30 04:15:35;;;;;;;13.73;4.75;;;;;;;;;;5056074;28;20025;-68
2022/08/30 04:18:01;;;;;;;10.98;4.07;;;;;;;;;;5056130;28;20025;-68
2022/08/30 04:20:27;;;;;;;10.10;4.32;;;;;;;;;;5056606;28;20477;-68
2022/08/30 04:22:53;;;;;;;13.25;3.97;;;;;;;;;;5038144;28;20059;-68
2022/08/30 04:25:19;;;;;;;14.15;4.65;;;;;;;;;;5055940;28;20450;-69
2022/08/30 04:27:45;;;;;;;11.57;4.50;;;;;;;;;;5055955;28;20029;-70
2022/08/30 04:30:12;;;;;;;9.82;4.38;;;;;;;;;;5055939;28;20436;-69
2022/08/30 04:32:39;;;;;;;9.60;4.32;;;;;;;;;;5055857;28;20488;-68
2022/08/30 04:35:05;;;;;;;9.68;4.20;;;;;;;;;;5056285;28;20034;-70
2022/08/30 04:37:32;;;;;;;11.90;4.25;;;;;;;;;;5055939;28;20078;-68
2022/08/30 04:39:59;;;;;;;10.07;4.03;;;;;;;;;;5055705;28;20027;-68
2022/08/30 04:42:30;;;;;;;13.95;4.45;;;;;;;;;;5055938;28;20025;-69
2022/08/30 04:44:56;;;;;;;8.13;3.92;;;;;;;;;;5055934;28;20401;-69
2022/08/30 04:47:22;;;;;;;13.05;4.70;;;;;;;;;;5055584;28;20067;-69
2022/08/30 04:49:48;;;;;;;9.02;4.55;;;;;;;;;;5055788;28;20021;-68
2022/08/30 04:52:14;;;;;;;10.93;4.43;;;;;;;;;;5055482;28;20117;-69
2022/08/30 04:54:40;;;;;;;10.82;4.68;;;;;;;;;;5055435;28;20047;-68
2022/08/30 04:57:06;;;;;;;13.10;4.63;;;;;;;;;;5055178;28;20048;-68
2022/08/30 04:59:32;;;;;;;9.68;4.32;;;;;;;;;;5055387;28;20082;-68
2022/08/30 05:01:59;;;;;;;11.15;4.18;;;;;;;;;;5055291;28;20112;-69
2022/08/30 05:04:25;;;;;;;12.30;4.28;;;;;;;;;;5055266;28;20366;-68
2022/08/30 05:06:51;;;;;;;15.77;4.85;;;;;;;;;;5055247;28;20119;-69
2022/08/30 05:09:17;;;;;;;18.25;5.13;;;;;;;;;;5055478;28;20068;-69
2022/08/30 05:11:45;;;;;;;9.80;4.40;;;;;;;;;;5054568;28;20481;-69
2022/08/30 05:14:11;;;;;;;11.55;4.80;;;;;;;;;;5055377;28;20070;-69
2022/08/30 05:16:37;;;;;;;10.05;4.00;;;;;;;;;;5054943;28;20029;-68
2022/08/30 05:19:03;;;;;;;11.57;4.28;;;;;;;;;;5054949;28;20025;-68
2022/08/30 05:21:29;;;;;;;10.93;4.63;;;;;;;;;;5055168;28;20021;-68
2022/08/30 05:23:58;;;;;;;17.25;5.28;;;;;;;;;;5054862;28;20477;-69
2022/08/30 05:26:26;;;;;;;9.00;3.63;;;;;;;;;;5055111;28;20473;-69
2022/08/30 05:28:52;;;;;;;10.15;4.15;;;;;;;;;;5036897;28;20051;-68
2022/08/30 05:31:45;;;;;;;9.98;3.90;;;;;;;;;;5055040;28;20503;-68
2022/08/30 05:34:11;;;;;;;10.15;3.92;;;;;;;;;;5053324;28;20033;-70
2022/08/30 05:36:39;;;;;;;15.63;4.68;;;;;;;;;;5055373;28;20033;-68
2022/08/30 05:39:09;;;;;;;12.18;5.45;;;;;;;;;;5055185;28;20032;-68
2022/08/30 05:41:36;;;;;;;12.77;4.60;;;;;;;;;;5055163;28;20025;-68
2022/08/30 05:44:03;;;;;;;11.65;4.72;;;;;;;;;;5054496;28;20070;-68
2022/08/30 05:46:32;;;;;;;7.82;3.75;;;;;;;;;;5054741;28;20029;-69
2022/08/30 05:48:58;;;;;;;10.07;4.50;;;;;;;;;;5036553;28;20039;-69
2022/08/30 05:51:27;;;;;;;14.65;5.25;;;;;;;;;;5054332;28;20036;-69
2022/08/30 05:53:54;;;;;;;13.20;4.70;;;;;;;;;;5054887;28;20024;-69
2022/08/30 05:56:25;;;;;;;12.10;4.07;;;;;;;;;;5054010;28;20049;-68
2022/08/30 05:58:51;;;;;;;10.27;4.00;;;;;;;;;;5054537;28;20024;-68
2022/08/30 06:01:20;;;;;;;13.43;4.00;;;;;;;;;;5054104;28;20025;-68
2022/08/30 06:03:46;;;;;;;11.27;4.03;;;;;;;;;;5054101;28;20028;-70
2022/08/30 06:06:12;;;;;;;20.48;5.10;;;;;;;;;;5054365;28;20068;-69
2022/08/30 06:08:38;;;;;;;7.28;4.20;;;;;;;;;;5053990;28;20043;-69
2022/08/30 06:11:04;;;;;;;10.45;4.03;;;;;;;;;;5036090;28;20091;-70
2022/08/30 06:13:31;;;;;;;9.88;3.78;;;;;;;;;;5053963;28;20021;-69
2022/08/30 06:15:57;;;;;;;10.95;3.53;;;;;;;;;;5053841;28;20078;-68
2022/08/30 06:18:23;;;;;;;9.15;4.30;;;;;;;;;;5053895;28;20078;-70
2022/08/30 06:20:50;;;;;;;10.15;4.20;;;;;;;;;;5053817;28;20021;-68
2022/08/30 06:23:19;;;;;;;9.93;3.90;;;;;;;;;;5052932;28;20025;-69
2022/08/30 06:25:45;;;;;;;11.50;4.97;;;;;;;;;;5053715;28;20021;-68
2022/08/30 06:28:11;;;;;;;10.05;4.38;;;;;;;;;;5053955;28;20021;-68
2022/08/30 06:30:39;;;;;;;9.93;3.90;;;;;;;;;;5053957;28;20028;-69
2022/08/30 06:33:05;;;;;;;11.40;4.45;;;;;;;;;;5035679;28;20500;-69
2022/08/30 06:35:31;;;;;;;8.98;4.03;;;;;;;;;;5054003;28;20025;-68
2022/08/30 06:37:57;;;;;;;6.93;3.20;;;;;;;;;;5053562;28;20025;-69
2022/08/30 06:40:24;;;;;;;10.30;4.03;;;;;;;;;;5035599;28;20480;-69
2022/08/30 06:42:50;;;;;;;10.18;3.40;;;;;;;;;;5035590;28;20048;-69
2022/08/30 06:45:16;;;;;;;13.10;3.72;;;;;;;;;;5053685;28;20096;-70
2022/08/30 06:47:42;;;;;;;7.93;3.20;;;;;;;;;;5053362;28;20603;-70
2022/08/30 06:50:09;;;;;;;5.85;2.90;;;;;;;;;;5053341;28;20025;-69
2022/08/30 06:52:35;;;;;;;10.00;3.70;;;;;;;;;;5053862;28;20108;-69
2022/08/30 06:55:01;;;;;;;7.30;3.28;;;;;;;;;;5035463;28;20453;-69
2022/08/30 06:57:27;;;;;;;7.72;3.20;;;;;;;;;;5052792;28;20132;-69
2022/08/30 06:59:56;;;;;;;8.77;3.60;;;;;;;;;;5053527;28;20092;-68
2022/08/30 07:02:23;;;;;;;5.47;2.92;;;;;;;;;;5053172;28;20055;-69
2022/08/30 07:04:49;;;;;;;9.40;3.75;;;;;;;;;;5053457;28;20017;-69
2022/08/30 07:07:15;;;;;;;6.60;3.20;;;;;;;;;;5053093;28;20056;-68
2022/08/30 07:09:43;;;;;;;8.90;3.28;;;;;;;;;;5053115;28;20087;-69
2022/08/30 07:12:10;;;;;;;11.57;3.67;;;;;;;;;;5053644;28;20071;-69
2022/08/30 07:14:36;;;;;;;14.77;3.47;;;;;;;;;;5053645;28;20033;-69
2022/08/30 07:18:49;;;;;;;8.38;3.80;;;;;;;;;;5035112;28;20033;-69
2022/08/30 07:19:49;;;;;;;7.82;3.40;;;;;;;;;;5052689;28;20385;-69
2022/08/30 07:22:15;;;;;;;9.50;3.50;;;;;;;;;;5053300;28;20130;-70
2022/08/30 07:24:41;;;;;;;7.72;3.42;;;;;;;;;;5053012;28;20094;-69
2022/08/30 07:27:07;;;;;;;6.50;3.10;;;;;;;;;;5053274;28;20051;-68
2022/08/30 07:29:33;;;;;;;8.95;3.50;;;;;;;;;;5052945;28;20107;-70
2022/08/30 07:31:59;;;;;;;6.43;3.22;;;;;;;;;;5053220;28;20100;-69
2022/08/30 07:34:25;;;;;;;7.70;3.42;;;;;;;;;;5054796;28;20033;-70
2022/08/30 07:36:51;;;;;;;6.47;3.33;;;;;;;;;;5039531;28;20049;-69
2022/08/30 07:39:17;;;;;;;6.80;3.28;;;;;;;;;;5056848;28;20429;-68
2022/08/30 07:41:43;;;;;;;9.23;2.92;;;;;;;;;;5056884;28;20021;-68
2022/08/30 07:44:10;;;;;;;7.07;3.10;;;;;;;;;;5056772;28;20096;-69
2022/08/30 07:46:39;;;;;;;10.70;3.08;;;;;;;;;;5056985;28;20489;-69
2022/08/30 07:49:05;;;;;;;7.95;3.13;;;;;;;;;;5057252;28;20052;-69
2022/08/30 07:51:32;;;;;;;8.35;3.33;;;;;;;;;;5056708;28;20029;-68
2022/08/30 07:53:58;;;;;;;9.65;3.20;;;;;;;;;;5056640;28;20047;-69
2022/08/30 07:56:24;;;;;;;10.30;3.47;;;;;;;;;;5056281;28;20199;-69
2022/08/30 07:58:50;;;;;;;6.32;3.53;;;;;;;;;;5056509;28;20021;-69
2022/08/30 08:01:17;;;;;;;9.13;3.22;;;;;;;;;;5056400;28;21083;-69
2022/08/30 08:03:45;;;;;;;8.15;3.55;;;;;;;;;;5056227;28;20031;-68
2022/08/30 08:06:12;;;;;;;8.50;3.05;;;;;;;;;;5055151;28;20075;-68
2022/08/30 08:08:39;;;;;;;7.28;3.28;;;;;;;;;;5054878;28;20052;-70
2022/08/30 08:11:11;;;;;;;7.15;3.42;;;;;;;;;;5038213;28;20032;-70
2022/08/30 08:13:37;;;;;;;8.00;3.38;;;;;;;;;;5056245;28;20075;-69
2022/08/30 08:16:03;;;;;;;7.57;2.95;;;;;;;;;;5056085;28;20473;-69
2022/08/30 08:18:30;;;;;;;11.95;3.72;;;;;;;;;;5055644;28;20084;-70
2022/08/30 08:20:57;;;;;;;7.85;3.28;;;;;;;;;;5054821;28;20013;-68
2022/08/30 08:23:23;;;;;;;6.30;3.10;;;;;;;;;;5056084;28;20477;-69
2022/08/30 08:25:49;;;;;;;8.52;3.20;;;;;;;;;;5056039;28;20389;-69
2022/08/30 08:28:15;;;;;;;6.32;3.22;;;;;;;;;;5055927;28;20058;-69
2022/08/30 08:30:41;;;;;;;8.63;3.53;;;;;;;;;;5055999;28;20044;-69
2022/08/30 08:33:08;;;;;;;9.90;3.70;;;;;;;;;;5055874;28;20049;-69
2022/08/30 08:35:34;;;;;;;6.45;3.63;;;;;;;;;;5056654;28;20494;-69
2022/08/30 08:38:00;;;;;;;12.15;3.15;;;;;;;;;;5055808;28;20428;-69
2022/08/30 08:40:27;;;;;;;7.60;3.08;;;;;;;;;;5056070;28;20043;-69
2022/08/30 08:42:59;;;;;;;6.82;3.28;;;;;;;;;;5055782;28;20052;-69
2022/08/30 08:45:40;;;;;;;7.72;2.92;;;;;;;;;;5055303;28;20017;-69
2022/08/30 08:48:22;;;;;;;5.07;2.80;;;;;;;;;;5056174;28;20377;-68
2022/08/30 08:53:34;;;;;;;7.38;2.85;;;;;;;;;;5055895;28;20044;-69
2022/08/30 08:56:00;;;;;;;7.90;3.47;;;;;;;;;;5055383;28;20045;-70
2022/08/30 08:58:31;;;;;;;6.28;2.70;;;;;;;;;;5055603;28;20033;-69
2022/08/30 09:00:57;;;;;;;9.23;3.47;;;;;;;;;;5055580;28;20040;-69
2022/08/30 09:03:25;;;;;;;8.48;3.33;;;;;;;;;;5037403;28;20025;-69
2022/08/30 09:05:52;;;;;;;8.27;3.00;;;;;;;;;;5055463;28;20025;-69
2022/08/30 09:08:19;;;;;;;10.38;3.20;;;;;;;;;;5055423;28;20021;-69
2022/08/30 09:10:59;;;;;;;7.78;3.75;;;;;;;;;;5055167;28;20020;-69
2022/08/30 09:13:25;;;;;;;5.68;2.92;;;;;;;;;;5055449;28;20359;-70
2022/08/30 09:15:52;;;;;;;7.28;2.97;;;;;;;;;;5054998;28;20401;-69
2022/08/30 09:18:18;;;;;;;7.45;3.50;;;;;;;;;;5055305;28;20473;-69
2022/08/30 09:20:47;;;;;;;8.55;2.88;;;;;;;;;;5055239;28;20040;-69
2022/08/30 09:23:13;;;;;;;7.00;2.60;;;;;;;;;;5054969;28;20017;-69
2022/08/30 09:26:00;;;;;;;5.65;3.00;;;;;;;;;;5054856;28;20470;-70
2022/08/30 09:28:28;;;;;;;8.02;3.20;;;;;;;;;;5055304;28;20043;-69
2022/08/30 09:31:17;;;;;;;9.75;3.40;;;;;;;;;;5055053;28;20096;-70
2022/08/30 09:34:00;;;;;;;7.70;2.80;;;;;;;;;;5055103;28;20484;-70
2022/08/30 09:36:29;;;;;;;8.10;3.17;;;;;;;;;;5055411;28;20033;-70
2022/08/30 09:39:05;;;;;;;7.97;3.30;;;;;;;;;;5054657;28;20139;-70
2022/08/30 09:41:40;;;;;;;7.07;3.30;;;;;;;;;;5055203;28;20060;-69
2022/08/30 09:44:06;;;;;;;6.60;3.25;;;;;;;;;;5055093;28;20096;-69
2022/08/30 09:46:32;;;;;;;8.23;3.17;;;;;;;;;;5054541;28;20031;-69
2022/08/30 09:48:58;;;;;;;7.93;2.95;;;;;;;;;;5054443;28;20029;-69
2022/08/30 09:51:59;;;;;;;9.05;3.60;;;;;;;;;;5054420;28;20115;-70
2022/08/30 09:54:29;;;;;;;6.97;3.33;;;;;;;;;;5012614;28;20040;-69
2022/08/30 09:56:55;;;;;;;;;;;;;;;;;;5047010;28;20072;-69
2022/08/30 09:59:30;;;;;;;8.68;3.28;;;;;;;;;;5036357;28;19905;-70
2022/08/30 10:02:11;;;;;;;8.68;3.55;;;;;;;;;;5054096;28;20021;-70
2022/08/30 10:04:49;;;;;;;6.85;3.20;;;;;;;;;;5054411;28;20021;-70
2022/08/30 10:07:15;;;;;;;6.90;3.30;;;;;;;;;;5054663;28;20474;-70
2022/08/30 10:09:41;;;;;;;9.48;3.42;;;;;;;;;;5054290;28;20025;-70
2022/08/30 10:12:15;;;;;;;6.97;2.90;;;;;;;;;;5053981;28;20021;-69
2022/08/30 10:14:50;;;;;;;9.40;3.50;;;;;;;;;;5054276;28;20036;-69
2022/08/30 10:17:22;;;;;;;12.57;3.63;;;;;;;;;;5053871;28;20063;-70
2022/08/30 10:19:48;;;;;;;8.13;3.58;;;;;;;;;;5054471;28;20021;-70
2022/08/30 10:22:18;;;;;;;8.50;3.22;;;;;;;;;;5053821;28;20378;-69
2022/08/30 10:24:50;;;;;;;7.78;3.53;;;;;;;;;;5054061;28;20035;-69
2022/08/30 10:27:18;;;;;;;9.90;3.83;;;;;;;;;;5053684;28;20108;-69
2022/08/30 10:29:47;;;;;;;5.20;3.10;;;;;;;;;;5035791;28;20032;-69
2022/08/30 10:32:16;;;;;;;7.20;2.92;;;;;;;;;;5053977;28;20033;-68
2022/08/30 10:35:03;;;;;;;6.28;3.10;;;;;;;;;;5053864;28;20548;-69
2022/08/30 10:37:32;;;;;;;8.13;3.08;;;;;;;;;;5054545;28;20028;-69
2022/08/30 10:43:15;;;;;;;7.28;3.53;;;;;;;;;;5053517;28;20128;-68
2022/08/30 10:45:44;;;;;;;14.05;3.63;;;;;;;;;;5054066;28;20017;-69
2022/08/30 10:48:18;;;;;;;8.52;3.35;;;;;;;;;;5035563;28;20093;-70
2022/08/30 10:50:48;;;;;;;8.02;3.15;;;;;;;;;;5035293;28;20029;-69
2022/08/30 10:53:32;;;;;;;7.82;3.53;;;;;;;;;;5053351;28;20112;-70
2022/08/30 10:56:25;;;;;;;9.27;3.65;;;;;;;;;;5053268;28;20416;-70
2022/08/30 10:58:53;;;;;;;7.82;3.47;;;;;;;;;;5051480;28;20037;-69
2022/08/30 11:01:39;;;;;;;6.50;3.10;;;;;;;;;;5053724;28;20017;-69
2022/08/30 11:04:24;;;;;;;6.45;3.17;;;;;;;;;;5053298;28;20113;-69
2022/08/30 11:06:50;;;;;;;5.93;3.42;;;;;;;;;;5053676;28;20052;-69
2022/08/30 11:09:36;;;;;;;8.15;4.10;;;;;;;;;;5052632;28;20056;-69
2022/08/30 11:12:21;;;;;;;7.22;4.20;;;;;;;;;;5053019;28;20504;-69
2022/08/30 11:14:48;;;;;;;7.85;3.58;;;;;;;;;;5053644;28;20029;-69
2022/08/30 11:17:30;;;;;;;6.32;2.90;;;;;;;;;;5053530;28;20393;-69
2022/08/30 11:19:57;;;;;;;10.82;3.83;;;;;;;;;;5053015;28;20033;-70
2022/08/30 11:22:23;;;;;;;6.70;3.67;;;;;;;;;;5052998;28;20026;-69
2022/08/30 11:24:58;;;;;;;12.48;4.07;;;;;;;;;;5053316;28;20096;-69
2022/08/30 11:27:41;;;;;;;6.57;3.50;;;;;;;;;;5053579;28;20028;-69
2022/08/30 11:30:26;;;;;;;7.13;3.45;;;;;;;;;;5053239;28;20025;-69
2022/08/30 11:33:10;;;;;;;7.75;3.65;;;;;;;;;;5052973;28;20029;-69
2022/08/30 11:35:51;;;;;;;8.85;3.60;;;;;;;;;;5053398;28;20083;-69
2022/08/30 11:38:19;;;;;;;8.77;3.60;;;;;;;;;;5053531;28;20029;-68
2022/08/30 11:40:47;;;;;;;7.03;3.30;;;;;;;;;;5052877;28;20028;-69
2022/08/30 11:43:31;;;;;;;7.80;3.35;;;;;;;;;;5035030;28;20021;-70
2022/08/30 11:46:12;;;;;;;9.88;3.22;;;;;;;;;;5052902;28;20389;-68
2022/08/30 11:48:41;;;;;;;7.13;3.22;;;;;;;;;;5052809;28;20166;-70
2022/08/30 11:51:13;;;;;;;8.15;3.53;;;;;;;;;;5034965;28;20482;-70
2022/08/30 11:53:42;;;;;;;8.23;3.80;;;;;;;;;;5052781;28;20032;-69
2022/08/30 11:56:14;;;;;;;8.90;3.67;;;;;;;;;;5052842;28;20053;-70
2022/08/30 11:58:40;;;;;;;6.90;3.20;;;;;;;;;;5052980;28;20021;-70
2022/08/30 12:01:15;;;;;;;8.20;3.53;;;;;;;;;;5052625;28;20386;-69
2022/08/30 12:03:41;;;;;;;6.43;3.20;;;;;;;;;;5052632;28;20021;-69
2022/08/30 12:06:08;;;;;;;8.00;3.50;;;;;;;;;;5052656;28;20025;-69
2022/08/30 12:08:34;;;;;;;8.15;4.18;;;;;;;;;;5052586;28;20112;-70
2022/08/30 12:11:27;;;;;;;6.78;3.55;;;;;;;;;;5052581;28;20100;-69
2022/08/30 12:13:54;;;;;;;6.75;3.60;;;;;;;;;;5036989;28;20044;-70
2022/08/30 12:16:23;;;;;;;7.63;3.92;;;;;;;;;;5052996;28;20036;-69
2022/08/30 12:18:49;;;;;;;9.47;3.93;;;;;;;;;;5052545;28;20482;-70
2022/08/30 12:21:21;;;;;;;6.40;3.40;;;;;;;;;;5054242;28;20098;-69
2022/08/30 12:23:50;;;;;;;8.98;3.80;;;;;;;;;;5056354;28;20021;-69
2022/08/30 12:26:17;;;;;;;8.27;3.78;;;;;;;;;;5056293;28;20496;-69
2022/08/30 12:28:45;;;;;;;5.85;3.38;;;;;;;;;;5056343;28;20025;-70
2022/08/30 12:31:23;;;;;;;6.90;3.25;;;;;;;;;;5055968;28;20028;-69
2022/08/30 12:33:52;;;;;;;11.00;3.95;;;;;;;;;;5056517;28;20033;-69
2022/08/30 12:36:18;;;;;;;;;;;;;;;;;;5056719;28;20047;-70
2022/08/30 12:38:44;;;;;;;9.43;3.88;;;;;;;;;;5056329;28;20361;-69
2022/08/30 12:41:17;;;;;;;6.95;3.90;;;;;;;;;;5055790;28;20086;-69
2022/08/30 12:43:49;;;;;;;7.78;4.95;;;;;;;;;;5056054;28;20032;-69
2022/08/30 12:46:17;;;;;;;9.55;3.92;;;;;;;;;;5055988;28;20044;-69
2022/08/30 12:48:43;;;;;;;8.48;3.88;;;;;;;;;;5055949;28;20485;-69
2022/08/30 12:51:25;;;;;;;9.13;4.07;;;;;;;;;;5055906;28;20029;-68
2022/08/30 12:53:51;;;;;;;11.93;3.92;;;;;;;;;;5055613;28;20025;-69
2022/08/30 12:56:17;;;;;;;12.38;4.32;;;;;;;;;;5055278;28;20143;-69
2022/08/30 12:58:43;;;;;;;6.45;3.80;;;;;;;;;;5055456;28;20100;-69
2022/08/30 13:01:16;;;;;;;7.38;3.80;;;;;;;;;;5055490;28;20039;-69
2022/08/30 13:03:42;;;;;;;7.20;3.67;;;;;;;;;;5055333;28;20044;-69
2022/08/30 13:06:09;;;;;;;6.80;3.63;;;;;;;;;;5055284;28;20029;-69
2022/08/30 13:08:44;;;;;;;6.80;3.75;;;;;;;;;;5055242;28;20032;-70
2022/08/30 13:11:25;;;;;;;7.43;3.72;;;;;;;;;;5055495;28;20362;-69
2022/08/30 13:13:53;;;;;;;6.82;4.18;;;;;;;;;;5037040;28;20028;-69
2022/08/30 13:16:19;;;;;;;8.20;4.05;;;;;;;;;;5055029;28;20032;-69
2022/08/30 13:18:46;;;;;;;9.30;4.47;;;;;;;;;;5055073;28;20018;-69
2022/08/30 13:21:24;;;;;;;8.32;3.90;;;;;;;;;;5055542;28;20025;-69
2022/08/30 13:23:51;;;;;;;9.52;3.97;;;;;;;;;;5055256;28;20021;-69
2022/08/30 13:26:18;;;;;;;6.30;3.85;;;;;;;;;;5055188;28;20033;-70
2022/08/30 13:28:53;;;;;;;7.45;3.92;;;;;;;;;;5055442;28;20128;-70
2022/08/30 13:31:19;;;;;;;6.88;3.70;;;;;;;;;;5054686;28;20033;-69
2022/08/30 13:33:45;;;;;;;6.93;4.00;;;;;;;;;;5054722;28;20110;-68
2022/08/30 13:36:12;;;;;;;9.23;3.55;;;;;;;;;;5055174;28;20060;-69
2022/08/30 13:38:38;;;;;;;6.20;3.75;;;;;;;;;;5055220;28;20032;-70
2022/08/30 13:41:04;;;;;;;6.82;3.55;;;;;;;;;;5054901;28;20029;-69
2022/08/30 13:43:30;;;;;;;9.63;4.30;;;;;;;;;;5054641;28;20025;-69
2022/08/30 13:45:57;;;;;;;8.50;4.13;;;;;;;;;;5054524;28;20079;-69
2022/08/30 13:48:23;;;;;;;6.55;3.95;;;;;;;;;;5054557;28;20033;-69
2022/08/30 13:50:49;;;;;;;7.38;3.92;;;;;;;;;;5054419;28;20021;-68
2022/08/30 13:53:15;;;;;;;5.65;3.55;;;;;;;;;;5054667;28;20016;-69
2022/08/30 13:55:41;;;;;;;7.13;4.00;;;;;;;;;;5054392;28;20041;-69
2022/08/30 13:58:07;;;;;;;7.15;3.67;;;;;;;;;;5054203;28;20052;-69
2022/08/30 14:00:34;;;;;;;5.97;3.65;;;;;;;;;;5054451;28;20049;-69
2022/08/30 14:03:00;;;;;;;8.23;4.30;;;;;;;;;;5054231;28;20021;-70
2022/08/30 14:05:29;;;;;;;9.85;4.15;;;;;;;;;;5054127;28;20036;-68
2022/08/30 14:07:55;;;;;;;8.70;4.43;;;;;;;;;;5054193;28;20393;-69
2022/08/30 14:10:23;;;;;;;7.40;4.38;;;;;;;;;;5054058;28;20040;-69
2022/08/30 14:12:49;;;;;;;9.77;4.28;;;;;;;;;;5036165;28;20059;-69
2022/08/30 14:15:15;;;;;;;9.15;4.28;;;;;;;;;;5053995;28;20057;-69
2022/08/30 14:17:41;;;;;;;8.07;3.83;;;;;;;;;;5053961;28;20025;-69
2022/08/30 14:20:08;;;;;;;8.25;4.20;;;;;;;;;;5053879;28;20492;-69
2022/08/30 14:22:34;;;;;;;8.20;3.80;;;;;;;;;;5054119;28;20021;-70
2022/08/30 14:25:00;;;;;;;7.38;3.72;;;;;;;;;;5053868;28;20502;-69
2022/08/30 14:27:26;;;;;;;9.00;3.97;;;;;;;;;;5053786;28;20029;-69
2022/08/30 14:29:52;;;;;;;9.00;4.45;;;;;;;;;;5054081;28;20029;-69
2022/08/30 14:32:18;;;;;;;11.02;4.68;;;;;;;;;;5053970;28;20025;-69
2022/08/30 14:34:45;;;;;;;7.15;3.88;;;;;;;;;;5053915;28;20033;-69
2022/08/30 14:37:11;;;;;;;15.07;4.07;;;;;;;;;;5054012;28;20025;-68
2022/08/30 14:39:37;;;;;;;11.18;4.40;;;;;;;;;;5035712;28;20025;-70
2022/08/30 14:42:03;;;;;;;7.78;3.88;;;;;;;;;;5053831;28;20033;-70
2022/08/30 14:44:29;;;;;;;7.88;3.92;;;;;;;;;;5053274;28;20059;-69
2022/08/30 14:46:56;;;;;;;7.65;3.80;;;;;;;;;;5053438;28;20029;-68
2022/08/30 14:49:22;;;;;;;10.90;3.92;;;;;;;;;;5053450;28;20071;-69
2022/08/30 14:51:48;;;;;;;10.30;3.65;;;;;;;;;;5053429;28;20021;-69
2022/08/30 14:54:15;;;;;;;6.95;3.85;;;;;;;;;;5035530;28;20543;-70